Date,TemperatureHighF,TemperatureAvgF,TemperatureLowF,DewpointHighF,DewpointAvgF,DewpointLowF,HumidityHigh,HumidityAvg,HumidityLow,PressureMaxIn,PressureMinIn,WindSpeedMaxMPH,WindSpeedAvgMPH,GustSpeedMaxMPH,PrecipitationSumIn
2014-4-16,53.6,43.0,36.3,28.9,26.7,23.3,65,53,33,30.09,29.99,17,8,17,0.00
2014-4-17,56.7,41.3,29.1,37.6,29.4,23.4,79,64,38,30.13,30.03,9,3,9,0.00
2014-4-18,54.5,40.7,26.4,36.8,24.9,17.0,82,57,25,30.12,30.04,11,3,11,0.00
2014-4-19,47.3,40.7,32.9,35.8,29.0,24.2,84,64,46,30.19,29.96,13,5,13,0.08
2014-4-20,57.0,44.7,39.2,43.6,34.1,22.5,91,70,36,29.96,29.68,17,8,17,0.39
2014-4-21,63.7,46.7,32.2,26.8,19.1,14.4,58,36,16,30.14,29.89,17,8,17,0.00
2014-4-22,63.1,48.5,34.2,34.0,25.8,22.3,68,44,21,30.25,30.04,13,4,13,0.00
2014-4-23,63.0,52.6,45.9,55.0,44.8,35.5,92,75,58,30.03,29.40,24,8,30,0.17
2014-4-24,60.3,50.2,42.1,35.1,26.6,21.7,62,41,24,29.91,29.57,30,15,36,0.00
2014-4-25,65.1,53.0,41.7,36.7,31.3,25.7,63,45,23,30.01,29.83,12,6,16,0.00
2014-4-26,48.0,45.6,43.0,43.8,39.2,35.5,90,79,62,29.84,29.76,12,4,12,0.15
2014-4-27,57.4,46.0,41.4,46.5,41.3,39.2,94,84,62,29.99,29.82,9,2,10,0.07
2014-4-28,59.5,49.4,41.2,41.9,39.4,36.4,86,70,49,30.22,29.96,12,6,16,0.00
2014-4-29,46.0,43.5,42.1,40.9,36.9,34.6,86,77,71,30.52,30.21,21,8,21,0.00
2014-4-30,49.1,44.0,41.4,41.4,38.5,36.1,94,81,69,30.55,30.18,13,5,16,0.17
2014-5-1,76.5,54.1,43.0,60.6,50.5,41.4,96,89,56,30.18,29.60,14,4,17,0.65
2014-5-2,55.0,52.4,50.4,53.9,51.1,49.3,97,95,90,29.65,29.61,6,2,13,0.00
2014-5-3,74.3,60.5,45.9,49.2,43.4,40.2,86,56,31,29.85,29.69,14,4,16,0.01
2014-5-4,67.5,58.0,49.8,50.3,41.1,32.5,88,56,31,29.72,29.51,27,10,30,0.01
2014-5-5,70.3,58.1,50.0,46.3,41.6,37.7,78,56,34,29.85,29.58,15,9,21,0.00
2014-5-6,68.7,55.4,43.3,45.0,34.8,21.1,81,51,19,30.03,29.82,20,6,21,0.00
2014-5-7,75.9,57.7,43.5,40.5,33.1,16.6,79,45,12,30.17,30.03,13,4,17,0.00
2014-5-8,74.3,58.1,41.7,46.6,38.1,28.5,83,54,19,30.21,30.08,11,3,13,0.00
2014-5-9,54.9,52.2,50.5,49.9,47.5,43.1,93,84,67,30.27,30.09,8,2,8,0.01
2014-5-10,86.9,72.7,53.4,67.2,59.8,48.9,92,68,43,30.09,29.74,14,6,17,0.06
2014-5-11,86.5,86.5,86.5,61.4,61.4,61.4,43,43,43,29.74,29.74,8,8,12,0.06
2014-5-12,86.5,85.1,45.9,61.4,60.7,39.4,78,44,43,29.95,29.74,12,8,12,0.06
2014-5-13,53.6,50.2,44.6,46.6,41.9,36.9,84,73,60,30.16,29.95,12,4,15,0.00
2014-5-14,48.4,47.7,47.3,42.8,41.4,40.1,82,79,76,30.15,30.12,3,1,4,0.00
2014-5-15,83.7,67.6,58.1,63.4,58.8,52.0,89,75,50,30.11,30.00,16,4,16,0.00
2014-5-16,76.3,66.0,59.7,61.7,59.4,57.0,95,81,57,30.01,29.80,18,7,18,0.19
2014-5-17,86.7,68.9,56.8,66.1,53.7,38.3,99,65,24,29.86,29.67,22,7,28,0.52
2014-5-18,79.2,61.9,51.4,48.8,44.4,39.2,67,54,31,29.91,29.81,11,4,14,0.00
2014-5-19,63.7,46.0,32.2,26.8,19.8,14.4,62,39,16,30.16,29.94,17,6,17,0.00
2014-5-20,65.8,53.8,34.2,50.2,36.2,22.5,86,56,21,30.22,29.93,13,3,13,0.01
2014-5-21,77.5,62.1,47.8,61.6,51.3,45.6,92,70,47,29.98,29.91,14,3,14,0.00
2014-5-22,68.2,56.8,51.6,55.8,52.4,49.8,98,86,62,29.94,29.85,8,2,11,0.02
2014-5-23,63.5,56.3,52.3,55.8,52.1,49.1,95,86,71,29.97,29.85,9,3,11,0.05
2014-5-24,78.4,59.1,52.0,53.9,50.2,47.2,93,75,42,30.04,29.93,9,3,12,0.04
2014-5-25,76.3,60.9,48.6,56.9,52.7,47.8,97,77,48,30.07,29.96,9,2,11,0.01
2014-5-26,88.2,70.0,56.1,61.1,56.5,52.9,90,65,34,29.96,29.73,17,5,23,0.00
2014-5-27,74.1,57.7,48.6,61.6,53.3,47.0,98,86,62,29.94,29.75,12,4,14,0.18
2014-5-28,50.4,48.3,41.0,49.6,46.5,38.5,99,94,82,30.20,29.91,15,5,20,0.25
2014-5-29,70.7,53.7,36.0,53.2,42.7,34.9,99,71,34,30.24,30.14,9,2,11,0.00
2014-5-30,75.7,58.7,44.8,56.1,48.5,42.8,97,72,45,30.13,29.97,11,3,14,0.02
2014-5-31,66.9,56.0,45.1,51.6,48.0,40.1,94,77,40,30.27,30.03,12,4,14,0.00
2014-6-1,83.7,63.6,45.5,57.4,45.7,39.5,93,57,24,30.33,30.20,10,3,10,0.00
2014-6-2,89.6,72.3,50.7,55.6,51.3,46.2,90,53,27,30.20,29.94,13,3,15,0.00
2014-6-3,82.0,68.8,56.7,59.8,53.6,45.2,87,61,42,29.98,29.88,16,4,18,0.00
2014-6-4,66.0,59.1,55.6,57.2,54.1,47.7,96,84,64,29.88,29.75,7,2,8,0.08
2014-6-5,59.9,57.1,53.2,58.6,56.3,52.7,99,97,94,29.77,29.61,11,2,14,0.51
2014-6-6,81.5,65.9,53.2,60.6,55.6,52.7,99,73,41,29.82,29.65,12,4,14,0.00
2014-6-7,83.1,66.0,57.6,60.2,55.5,53.1,85,70,45,29.88,29.82,8,4,9,0.00
2014-6-8,93.2,79.7,59.4,65.3,58.7,55.5,88,52,33,29.91,29.82,8,3,9,0.00
2014-6-9,90.3,73.8,61.3,65.4,59.9,53.0,86,64,41,29.95,29.85,11,3,13,0.00
2014-6-10,81.7,68.6,60.3,68.8,62.1,55.3,95,80,62,30.08,29.89,11,3,14,0.05
2014-6-11,73.2,62.2,54.7,60.0,54.2,49.4,95,76,55,30.18,30.07,9,2,9,0.00
2014-6-12,61.5,60.4,60.3,54.4,53.8,52.5,80,79,73,30.15,30.12,2,0,3,0.00
2014-6-13,60.4,60.4,60.4,53.9,53.9,53.9,79,79,79,30.14,30.14,0,0,2,0.00
2014-6-14,60.4,60.4,60.4,53.9,53.9,53.9,79,79,79,30.14,30.14,0,0,2,0.00
2014-6-23,53.6,41.3,29.1,37.6,26.7,23.4,79,58,33,29.91,29.81,14,3,14,0.00
2014-6-24,56.7,39.8,26.4,36.8,28.7,20.2,82,66,38,29.91,29.81,9,3,9,0.00
2014-6-25,54.5,43.0,32.9,30.4,25.9,17.0,75,53,25,29.95,29.83,11,4,11,0.00
2014-6-26,47.3,42.2,39.2,38.4,33.1,25.2,91,72,46,29.97,29.46,13,7,13,0.46
2014-6-27,57.0,44.0,32.2,43.6,27.6,18.2,91,54,35,29.86,29.46,17,8,17,0.01
2014-6-28,63.7,46.3,34.2,34.0,20.8,14.4,68,41,16,30.01,29.84,17,5,17,0.00
2014-6-29,89.4,70.6,45.9,58.8,45.9,22.5,78,43,21,30.03,29.79,13,5,15,0.01
2014-6-30,100.0,82.3,63.9,68.1,62.0,54.8,73,53,32,29.88,29.65,13,4,14,0.00
2014-7-1,97.3,83.6,69.6,71.9,67.7,60.8,78,60,43,29.68,29.51,13,5,18,0.00
2014-7-2,98.4,84.6,73.8,75.3,70.8,66.5,82,64,46,29.69,29.54,17,6,19,0.00
2014-7-3,100.8,81.2,69.6,75.9,71.3,66.9,94,74,45,29.79,29.64,13,3,17,0.41
2014-7-4,83.3,70.4,63.3,75.2,67.5,62.5,98,91,69,29.79,29.57,13,3,14,1.30
2014-7-5,64.8,59.1,58.1,64.5,57.5,56.4,99,94,92,29.59,29.51,14,11,18,0.12
2014-7-6,58.1,58.1,58.1,56.4,56.4,56.4,94,94,94,29.59,29.59,12,12,12,0.00
2014-7-7,58.1,58.1,58.1,56.4,56.4,56.4,94,94,94,29.59,29.59,12,12,12,0.00
2014-7-8,58.1,58.1,58.1,56.4,56.4,56.4,94,94,94,29.59,29.59,12,12,12,0.00
2014-7-9,58.1,58.1,58.1,56.4,56.4,56.4,94,94,94,29.59,29.59,12,12,12,0.00
2014-7-10,58.1,58.1,58.1,56.4,56.4,56.4,94,94,94,29.59,29.59,12,12,12,0.00